createdAt,value
2022-11-23T00:04:56.197Z,10.7
2022-11-23T00:10:46.604Z,9.8
2022-11-23T00:16:38.260Z,9.4
2022-11-23T00:22:30.001Z,10.6
2022-11-23T00:28:28.790Z,9.2
2022-11-23T00:34:27.641Z,8
2022-11-23T00:40:26.851Z,11.6
2022-11-23T00:46:23.661Z,9
2022-11-23T00:52:14.886Z,12
2022-11-23T00:58:04.653Z,11.2
2022-11-23T01:04:05.841Z,11.9
2022-11-23T01:10:11.107Z,11.1
2022-11-23T01:16:11.528Z,12.3
2022-11-23T01:22:03.406Z,9.1
2022-11-23T01:28:06.031Z,8.9
2022-11-23T01:33:57.923Z,7.2
2022-11-23T01:39:50.353Z,10.2
2022-11-23T01:45:55.040Z,10.9
2022-11-23T01:51:49.768Z,9.1
2022-11-23T01:57:42.835Z,9.7
2022-11-23T02:03:41.390Z,11.3
2022-11-23T02:09:32.171Z,14.9
2022-11-23T02:15:36.888Z,8
2022-11-23T02:21:26.948Z,10.4
2022-11-23T02:27:31.358Z,11.9
2022-11-23T02:33:26.890Z,14.8
2022-11-23T02:39:16.812Z,8.2
2022-11-23T02:45:15.688Z,11.1
2022-11-23T02:51:12.333Z,13.2
2022-11-23T02:57:05.841Z,13.3
2022-11-23T03:03:11.191Z,10.8
2022-11-23T03:09:13.288Z,11.8
2022-11-23T03:15:08.256Z,11.3
2022-11-23T03:21:03.809Z,13.4
2022-11-23T03:27:04.401Z,12.8
2022-11-23T03:33:01.434Z,14.3
2022-11-23T03:39:05.090Z,13.7
2022-11-23T03:45:26.175Z,13.2
2022-11-23T03:51:35.878Z,10.1
2022-11-23T03:57:27.043Z,14.5
2022-11-23T04:03:26.227Z,10.4
2022-11-23T04:09:16.848Z,12.2
2022-11-23T04:15:08.479Z,12.6
2022-11-23T04:21:13.748Z,12.6
2022-11-23T04:27:10.816Z,11.5
2022-11-23T04:33:17.460Z,14
2022-11-23T04:39:31.164Z,10.6
2022-11-23T04:45:26.604Z,12.3
2022-11-23T04:51:27.665Z,10.3
2022-11-23T04:57:18.995Z,10.1
2022-11-23T05:03:09.958Z,14.7
2022-11-23T05:09:03.222Z,14.3
2022-11-23T05:14:57.251Z,10.4
2022-11-23T05:20:53.684Z,12
2022-11-23T05:26:43.354Z,9
2022-11-23T05:32:52.033Z,6.9
2022-11-23T05:38:56.525Z,12.3
2022-11-23T05:44:59.527Z,11.8
2022-11-23T05:50:53.106Z,12.7
2022-11-23T05:56:46.338Z,12.4
2022-11-23T06:02:52.902Z,13.2
2022-11-23T06:09:06.957Z,14.5
2022-11-23T06:15:02.106Z,16.4
2022-11-23T06:21:34.172Z,13.9
2022-11-23T06:27:32.286Z,19.1
2022-11-23T06:33:43.830Z,22.4
2022-11-23T06:39:40.844Z,16.2
2022-11-23T06:46:03.828Z,15.7
2022-11-23T06:52:03.640Z,22.1
2022-11-23T06:58:27.231Z,20.3
2022-11-23T07:11:12.816Z,20.4
2022-11-23T07:17:32.640Z,27.4
2022-11-23T07:23:37.133Z,20.2
2022-11-23T07:29:49.595Z,20.5
2022-11-23T07:35:45.009Z,18.7
2022-11-23T07:41:39.746Z,21.1
2022-11-23T07:48:19.445Z,20.2
2022-11-23T07:54:29.135Z,18.3
2022-11-23T08:00:23.808Z,22.7
2022-11-23T08:06:40.180Z,19.4
2022-11-23T08:19:02.354Z,18.2
2022-11-23T08:25:05.400Z,16.7
2022-11-23T08:30:58.459Z,16.8
2022-11-23T08:37:24.877Z,22
2022-11-23T08:43:30.135Z,19.3
2022-11-23T08:49:37.694Z,19
2022-11-23T08:55:37.344Z,18.5
2022-11-23T09:01:37.668Z,23.3
2022-11-23T09:07:36.023Z,21.2
2022-11-23T09:13:34.918Z,18.1
2022-11-23T09:19:38.087Z,20.8
2022-11-23T09:25:29.541Z,29.1
2022-11-23T09:31:37.222Z,18.6
2022-11-23T09:37:27.379Z,24.3
2022-11-23T09:43:31.572Z,26.6
2022-11-23T09:49:22.348Z,20.8
2022-11-23T09:55:22.393Z,17.7
2022-11-23T10:01:12.653Z,14.2
2022-11-23T10:07:05.375Z,19.7
2022-11-23T10:12:57.178Z,25.8
2022-11-23T10:18:51.405Z,18.1
2022-11-23T10:24:48.905Z,13.6
2022-11-23T10:30:41.435Z,14.7
2022-11-23T10:42:29.811Z,13.6
2022-11-23T10:54:40.738Z,13.6
2022-11-23T11:00:38.724Z,13.8
2022-11-23T11:06:36.627Z,15
2022-11-23T11:12:34.372Z,13.6
2022-11-23T11:18:44.601Z,12.9
2022-11-23T11:24:50.731Z,11
2022-11-23T11:30:54.859Z,14.5
2022-11-23T11:36:50.524Z,11.9
2022-11-23T11:42:57.589Z,11.3
2022-11-23T11:49:07.797Z,12.3
2022-11-23T11:55:10.424Z,10.3
2022-11-23T12:01:04.227Z,13.9
2022-11-23T12:06:57.863Z,12.7
2022-11-23T12:12:51.953Z,14.6
2022-11-23T12:18:43.815Z,13.8
2022-11-23T12:30:28.947Z,10.8
2022-11-23T12:36:27.926Z,15.2
2022-11-23T12:42:40.824Z,12.5
2022-11-23T12:48:55.274Z,12.8
2022-11-23T13:00:51.983Z,11.2
2022-11-23T13:07:47.723Z,11.5
2022-11-23T13:26:33.789Z,9.5
2022-11-23T13:32:24.618Z,10.9
2022-11-23T13:38:21.059Z,10.9
2022-11-23T13:44:25.264Z,11.5
2022-11-23T13:50:16.353Z,9.1
2022-11-23T13:56:23.014Z,8.3
2022-11-23T14:02:30.841Z,11.6
2022-11-23T14:08:35.020Z,13.5
2022-11-23T14:14:39.765Z,14.1
2022-11-23T14:33:16.160Z,11.7
2022-11-23T14:39:07.367Z,10.9
2022-11-23T15:06:23.677Z,9.3
2022-11-23T15:19:35.778Z,10.9
2022-11-23T15:32:42.869Z,12.6
2022-11-23T15:38:58.473Z,11.7
2022-11-23T15:59:09.908Z,8.1
2022-11-23T16:11:56.079Z,12.5
2022-11-23T16:24:01.273Z,13.3
2022-11-23T16:29:51.085Z,16
2022-11-23T16:35:41.066Z,13.7
2022-11-23T16:41:30.983Z,11.3
2022-11-23T16:47:23.001Z,14.2
2022-11-23T16:53:14.712Z,10.6
2022-11-23T16:59:06.346Z,10.3
2022-11-23T17:05:02.685Z,7.1
2022-11-23T17:10:54.235Z,8.3
2022-11-23T17:16:42.848Z,11
2022-11-23T17:22:32.795Z,8.7
2022-11-23T17:28:22.854Z,8.3
2022-11-23T17:34:11.416Z,9.6
2022-11-23T17:40:01.889Z,12
2022-11-23T17:45:52.537Z,10.2
2022-11-23T17:51:43.507Z,8.4
2022-11-23T17:57:34.316Z,9.8
2022-11-23T18:03:25.305Z,8.7
2022-11-23T18:09:17.547Z,9.1
2022-11-23T18:15:07.859Z,10.4
2022-11-23T18:20:58.284Z,16.4
2022-11-23T18:26:48.797Z,13.9
2022-11-23T18:32:39.254Z,12.6
2022-11-23T18:38:29.623Z,13.1
2022-11-23T18:44:19.987Z,11.7
2022-11-23T18:50:12.087Z,11.6
2022-11-23T18:56:06.908Z,11.3
2022-11-23T19:01:57.293Z,9.9
2022-11-23T19:07:48.872Z,9.8
2022-11-23T19:13:39.552Z,9.6
2022-11-23T19:19:30.273Z,9.6
2022-11-23T19:25:22.004Z,9.8
2022-11-23T19:31:12.684Z,11.2
2022-11-23T19:37:05.030Z,11.4
2022-11-23T19:42:54.779Z,8.3
2022-11-23T19:48:45.336Z,12
2022-11-23T19:54:36.370Z,9
2022-11-23T20:00:26.614Z,10.5
2022-11-23T20:06:18.522Z,11.9
2022-11-23T20:12:09.120Z,9.2
2022-11-23T20:18:00.165Z,11.4
2022-11-23T20:23:50.384Z,13.1
2022-11-23T20:29:41.570Z,13.7
2022-11-23T20:35:32.283Z,14.3
2022-11-23T20:41:22.428Z,12.4
2022-11-23T20:47:13.241Z,13.5
2022-11-23T20:53:04.840Z,14.1
2022-11-23T20:58:57.982Z,14.5
2022-11-23T21:04:47.489Z,16.1
2022-11-23T21:10:36.562Z,15.3
2022-11-23T21:16:28.138Z,15.5
2022-11-23T21:22:17.920Z,18.3
2022-11-23T21:28:08.709Z,31.7
2022-11-23T21:34:00.222Z,23
2022-11-23T21:39:58.508Z,19.1
2022-11-23T21:45:48.395Z,16.6
2022-11-23T21:51:38.824Z,19.7
2022-11-23T21:57:29.673Z,17.4
2022-11-23T22:03:18.999Z,21
2022-11-23T22:09:09.820Z,22.4
2022-11-23T22:15:01.113Z,23.3
2022-11-23T22:20:51.200Z,23.2
2022-11-23T22:26:45.727Z,27.3
2022-11-23T22:32:35.171Z,24.7
2022-11-23T22:38:25.801Z,21.5
2022-11-23T22:44:22.395Z,39.7
2022-11-23T22:50:13.420Z,43.3
2022-11-23T22:56:03.750Z,27.1
2022-11-23T23:01:55.941Z,28
2022-11-23T23:08:00.776Z,26
2022-11-23T23:13:52.782Z,27.3
2022-11-23T23:19:49.445Z,24.4
2022-11-23T23:25:44.632Z,24.7
2022-11-23T23:31:36.804Z,27.6
2022-11-23T23:37:27.299Z,26.8
2022-11-23T23:43:19.095Z,24.1
2022-11-23T23:49:08.688Z,24.3
2022-11-23T23:54:59.207Z,22.1
